| ID | Date Time (PST) |
Wind Direction |
Min Wind Speed (m/s) |
Ave Wind Speed (m/s) |
Max Wind Speed (m/s) |
Sigma Theta |
Temp (C) |
Temp (F) |
Relative Humidity (%) |
Pressure (hPa) |
Solar Rad (W/m^2) |
Precipitation (in.) |
Battery (V) |
DT/Dz (C/m) |
Stability |
| A26AB | 2026-05-04 16:45:00 | 199 | 3.9 | 8.1 | 11.7 | 10.5 | 18 | 64 | 23 | 862.6 | 353.5 | 0 | 12.52 | -0.117 | |
| A26AB | 2026-05-04 16:30:00 | 209 | 4.1 | 8.1 | 12.4 | 10.5 | 18.2 | 64 | 23 | 862.6 | 412.7 | 0 | 12.54 | -0.116 | |
| A26AB | 2026-05-04 16:15:00 | 207 | 3.7 | 7.8 | 13.2 | 13.6 | 18.5 | 65 | 23 | 862.6 | 472.5 | 0 | 12.55 | -0.136 | |
| A26AB | 2026-05-04 16:00:00 | 209 | 3.6 | 8.4 | 14.3 | 10.1 | 18.5 | 65 | 21 | 862.6 | 531.1 | 0 | 12.58 | -0.148 | |
| A26AB | 2026-05-04 15:45:00 | 206 | 4.6 | 9 | 13.7 | 9.7 | 18.5 | 65 | 21 | 862.7 | 585.3 | 0 | 12.62 | -0.168 | |
| A26AB | 2026-05-04 15:30:00 | 197 | 3.6 | 7.9 | 12.2 | 12.7 | 18.4 | 65 | 22 | 862.8 | 637.2 | 0 | 12.82 | -0.185 | |
| A26AB | 2026-05-04 15:15:00 | 194 | 3.3 | 8.2 | 14.3 | 11.5 | 18.6 | 65 | 21 | 862.8 | 692.6 | 0 | 13.56 | -0.196 | |
| A26AB | 2026-05-04 15:00:00 | 183 | 5.8 | 9.7 | 13.2 | 8.3 | 18.7 | 65 | 22 | 862.7 | 742.5 | 0 | 13.55 | -0.203 | |
| A26AB | 2026-05-04 14:45:00 | 190 | 4.5 | 9.2 | 14.1 | 10.8 | 18.5 | 65 | 24 | 862.8 | 790 | 0 | 13.56 | -0.193 | |
| A26AB | 2026-05-04 14:30:00 | 197 | 5.8 | 9.6 | 14.1 | 11 | 18.6 | 65 | 23 | 862.9 | 842.4 | 0 | 13.56 | -0.203 | |
| A26AB | 2026-05-04 14:15:00 | 204 | 6 | 9.7 | 15.3 | 10.2 | 18.8 | 65 | 23 | 863 | 900.9 | 0 | 13.56 | -0.215 | |
| A26AB | 2026-05-04 14:00:00 | 202 | 4.8 | 9.2 | 14 | 10.6 | 18.7 | 65 | 23 | 863.1 | 937.8 | 0 | 13.56 | -0.215 | |
| A26AB | 2026-05-04 13:45:00 | 204 | 3.5 | 8.4 | 12.9 | 12.8 | 18.7 | 65 | 22 | 863.3 | 927.9 | 0 | 13.56 | -0.227 | |
| A26AB | 2026-05-04 13:30:00 | 203 | 4.9 | 8.9 | 13.1 | 12.4 | 18.6 | 65 | 22 | 863.4 | 944.6 | 0 | 13.56 | -0.235 | |
| A26AB | 2026-05-04 13:15:00 | 196 | 5 | 8 | 12.7 | 9.9 | 18.7 | 65 | 22 | 863.6 | 957.2 | 0 | 13.55 | -0.259 | |
| A26AB | 2026-05-04 13:00:00 | 196 | 3.1 | 8 | 13.5 | 12.9 | 18.4 | 65 | 24 | 863.7 | 1009.3 | 0 | 13.55 | -0.247 | |
| A26AB | 2026-05-04 12:45:00 | 206 | 5.2 | 9.1 | 13.5 | 11.5 | 18.2 | 64 | 25 | 863.8 | 1051.9 | 0 | 13.57 | -0.256 | |
| A26AB | 2026-05-04 12:30:00 | 217 | 1.2 | 7.3 | 12.1 | 13 | 18.1 | 64 | 27 | 863.8 | 1055 | 0 | 13.59 | -0.226 | |
| A26AB | 2026-05-04 12:15:00 | 213 | 2.5 | 7.2 | 13.4 | 12.9 | 17.9 | 64 | 26 | 863.9 | 1059.2 | 0 | 13.59 | -0.235 | |
| A26AB | 2026-05-04 12:00:00 | 221 | 3.1 | 7.2 | 12.4 | 14.8 | 17.6 | 63 | 29 | 863.9 | 1067.7 | 0 | 13.59 | -0.232 | |
| A26AB | 2026-05-04 11:45:00 | 216 | 3.1 | 7.3 | 13.6 | 16.1 | 17.8 | 64 | 29 | 864 | 1075.3 | 0 | 13.59 | -0.198 | |
| A26AB | 2026-05-04 11:30:00 | 214 | 2.5 | 6.6 | 12.2 | 13.7 | 17.6 | 63 | 29 | 864 | 1066.3 | 0 | 13.59 | -0.228 | |
| A26AB | 2026-05-04 11:15:00 | 232 | 2.6 | 6.6 | 10 | 11.9 | 17.8 | 64 | 30 | 864.1 | 1061.2 | 0 | 13.59 | -0.229 | |
| A26AB | 2026-05-04 11:00:00 | 224 | 2.5 | 6.2 | 11.7 | 12.6 | 17.6 | 63 | 31 | 864.2 | 1057.7 | 0 | 13.59 | -0.231 | |
| A26AB | 2026-05-04 10:45:00 | 235 | 2.4 | 6.3 | 9.8 | 16.1 | 16.9 | 62 | 35 | 864.3 | 1030.9 | 0 | 13.59 | -0.222 | |
| A26AB | 2026-05-04 10:30:00 | 250 | 4.1 | 7.4 | 11 | 10.3 | 16.4 | 61 | 37 | 864.3 | 1014.2 | 0 | 13.57 | -0.224 | |
| A26AB | 2026-05-04 10:15:00 | 252 | 4.1 | 7.2 | 10.7 | 12.5 | 15.9 | 60 | 38 | 864.4 | 996.1 | 0 | 13.56 | -0.223 | |
| A26AB | 2026-05-04 10:00:00 | 252 | 3.4 | 7.4 | 10.8 | 10 | 15.5 | 59 | 39 | 864.5 | 970.3 | 0 | 13.56 | -0.226 | |
| A26AB | 2026-05-04 09:45:00 | 259 | 3.9 | 7.7 | 11.4 | 11 | 15.2 | 59 | 41 | 864.6 | 939.8 | 0 | 13.56 | -0.2 | |
| A26AB | 2026-05-04 09:30:00 | 241 | 3.9 | 8 | 11.7 | 9.4 | 15.1 | 59 | 41 | 864.4 | 910.1 | 0 | 13.58 | -0.211 | |
| A26AB | 2026-05-04 09:15:00 | 244 | 4.3 | 7.9 | 11.2 | 9 | 14.9 | 58 | 42 | 864.3 | 872.7 | 0 | 13.6 | -0.205 | |
| A26AB | 2026-05-04 09:00:00 | 252 | 3.9 | 7.3 | 9.8 | 10.3 | 14.6 | 58 | 43 | 864.5 | 828.7 | 0 | 13.6 | -0.191 | |
| A26AB | 2026-05-04 08:45:00 | 249 | 3.8 | 6.8 | 9.4 | 10.2 | 14.6 | 58 | 41 | 864.4 | 783.6 | 0 | 13.6 | -0.181 | |
| A26AB | 2026-05-04 08:30:00 | 247 | 3.7 | 7.1 | 10.1 | 10.8 | 14.1 | 57 | 41 | 864.4 | 737.4 | 0 | 13.6 | -0.175 | |
| A26AB | 2026-05-04 08:15:00 | 256 | 3.2 | 6.4 | 9.4 | 8.4 | 13.8 | 56 | 43 | 864.4 | 687.7 | 0 | 13.6 | -0.157 | |
| A26AB | 2026-05-04 08:00:00 | 258 | 3.1 | 5.6 | 8.3 | 10 | 13.6 | 56 | 44 | 864.2 | 640.3 | 0 | 13.59 | -0.149 | |
| A26AB | 2026-05-04 07:45:00 | 264 | 2.7 | 5.2 | 7.8 | 9.2 | 13.4 | 56 | 45 | 864.3 | 585.7 | 0 | 13.59 | -0.134 | |
| A26AB | 2026-05-04 07:30:00 | 265 | 1.8 | 4.3 | 6.7 | 10.4 | 13.2 | 55 | 45 | 864.3 | 526 | 0 | 13.61 | -0.133 | |
| A26AB | 2026-05-04 07:15:00 | 266 | 2.2 | 4.2 | 6.5 | 10.6 | 12.9 | 55 | 45 | 864.4 | 469.4 | 0 | 13.62 | -0.103 | |
| A26AB | 2026-05-04 07:00:00 | 254 | 2.4 | 4 | 5.6 | 10.3 | 12.8 | 55 | 45 | 864.2 | 408 | 0 | 13.62 | -0.098 | |
| A26AB | 2026-05-04 06:45:00 | 240 | 1.7 | 3.7 | 6.1 | 10.4 | 12.6 | 54 | 43 | 864.1 | 349.8 | 0 | 13.63 | -0.088 | |
| A26AB | 2026-05-04 06:30:00 | 227 | 1.4 | 3.4 | 5 | 10 | 12.1 | 53 | 42 | 863.9 | 288.6 | 0 | 13.43 | -0.083 | |
| A26AB | 2026-05-04 06:15:00 | 236 | 1.5 | 2.9 | 4.4 | 8.2 | 11.8 | 53 | 43 | 864 | 230.3 | 0 | 13.26 | -0.066 | |
| A26AB | 2026-05-04 06:00:00 | 232 | 2.1 | 3.4 | 4.8 | 5.5 | 10.9 | 51 | 45 | 863.9 | 175.7 | 0 | 13.08 | -0.047 | |
| A26AB | 2026-05-04 05:45:00 | 234 | 1.3 | 2.8 | 4 | 5.9 | 9.9 | 49 | 45 | 863.9 | 120.9 | 0 | 12.77 | 0.001 | |
| A26AB | 2026-05-04 05:30:00 | 219 | 0.7 | 1.9 | 3.3 | 5.4 | 9.2 | 48 | 47 | 864 | 71.3 | 0 | 12.41 | 0.067 | |
| A26AB | 2026-05-04 05:15:00 | 191 | 0.3 | 1 | 3.8 | 19.3 | 9.8 | 49 | 45 | 863.8 | 29.9 | 0 | 12.2 | 0.03 | |
| A26AB | 2026-05-04 05:00:00 | 279 | 1 | 3.6 | 7.2 | 9.5 | 10.8 | 51 | 44 | 863.5 | 4.9 | 0 | 12.11 | 0.028 | |
| A26AB | 2026-05-04 04:45:00 | 282 | 2.4 | 4.9 | 7.7 | 7.4 | 10.8 | 51 | 42 | 863.2 | 0 | 0 | 12.1 | 0.028 | |
| A26AB | 2026-05-04 04:30:00 | 264 | 4.2 | 6.4 | 8.4 | 5 | 10.8 | 51 | 40 | 863.2 | 0 | 0 | 12.11 | 0.05 | |
| A26AB | 2026-05-04 04:15:00 | 260 | 3.4 | 5.9 | 8.5 | 7 | 10.5 | 51 | 43 | 863.2 | 0 | 0 | 12.12 | 0.047 | |
| A26AB | 2026-05-04 04:00:00 | 265 | 3.8 | 5.9 | 8.2 | 6.3 | 11.3 | 52 | 40 | 863.2 | 0 | 0 | 12.12 | 0.034 | |
| A26AB | 2026-05-04 03:45:00 | 270 | 3.9 | 5.9 | 8 | 5.9 | 12 | 53 | 36 | 863.1 | 0 | 0 | 12.12 | 0.037 | |
| A26AB | 2026-05-04 03:30:00 | 259 | 2.5 | 5.7 | 9.6 | 8.4 | 11.7 | 53 | 35 | 863.2 | 0 | 0 | 12.13 | 0.071 | |
| A26AB | 2026-05-04 03:15:00 | 244 | 4.1 | 5.8 | 7.5 | 4.7 | 11.8 | 53 | 33 | 863.1 | 0 | 0 | 12.14 | 0.09 | |
| A26AB | 2026-05-04 03:00:00 | 241 | 4.6 | 6.2 | 7.6 | 5.7 | 12.3 | 54 | 31 | 863.3 | 0 | 0 | 12.15 | 0.137 | |
| A26AB | 2026-05-04 02:45:00 | 248 | 2.3 | 4.5 | 6.6 | 7.8 | 12.6 | 54 | 29 | 863.5 | 0 | 0 | 12.16 | 0.13 | |
| A26AB | 2026-05-04 02:30:00 | 259 | 2.6 | 4.6 | 7.8 | 7.3 | 12.7 | 54 | 30 | 863.6 | 0 | 0 | 12.16 | 0.135 | |
| A26AB | 2026-05-04 02:15:00 | 260 | 2.2 | 3.7 | 5.9 | 7.5 | 12.6 | 54 | 32 | 863.5 | 0 | 0 | 12.17 | 0.121 | |
| A26AB | 2026-05-04 02:00:00 | 261 | 3 | 4.8 | 6.3 | 7.1 | 12.4 | 54 | 33 | 863.5 | 0 | 0 | 12.18 | 0.138 | |
| A26AB | 2026-05-04 01:45:00 | 258 | 3.1 | 4.3 | 6 | 6.5 | 12.3 | 54 | 34 | 863.5 | 0 | 0 | 12.18 | 0.188 | |
| A26AB | 2026-05-04 01:30:00 | 259 | 2.6 | 4.5 | 6 | 6.7 | 13 | 55 | 34 | 863.5 | 0 | 0 | 12.19 | 0.174 | |
| A26AB | 2026-05-04 01:15:00 | 260 | 2.3 | 3.5 | 5.2 | 8.3 | 13.2 | 55 | 34 | 863.5 | 0 | 0 | 12.2 | 0.2 | |
| A26AB | 2026-05-04 01:00:00 | 256 | 2 | 2.9 | 3.8 | 9.9 | 13 | 55 | 35 | 863.5 | 0 | 0 | 12.21 | 0.173 | |
| A26AB | 2026-05-04 00:45:00 | 247 | 1.2 | 3.1 | 5.9 | 12.9 | 13.3 | 56 | 35 | 863.6 | 0 | 0 | 12.21 | 0.155 | |
| A26AB | 2026-05-04 00:30:00 | 245 | 1.1 | 2.2 | 4.9 | 13 | 13 | 55 | 34 | 863.7 | 0 | 0 | 12.22 | 0.3 | |
| A26AB | 2026-05-04 00:15:00 | 279 | 0.1 | 1.4 | 2.9 | 22.5 | 13 | 55 | 33 | 863.7 | 0 | 0 | 12.22 | 0.308 | |
| A26AB | 2026-05-04 00:00:00 | 305 | 0.5 | 1.3 | 2.2 | 17.4 | 13.4 | 56 | 31 | 863.7 | 0 | 0 | 12.23 | 0.226 | |
| A26AB | 2026-05-03 23:45:00 | 258 | 0 | 1.9 | 4.2 | 13.5 | 14.5 | 58 | 29 | 863.5 | 0 | 0 | 12.24 | 0.116 | |
| A26AB | 2026-05-03 23:30:00 | 271 | 1.6 | 3.9 | 5.8 | 11.4 | 15.4 | 59 | 28 | 863.4 | 0 | 0 | 12.24 | 0.073 | |
| A26AB | 2026-05-03 23:15:00 | 283 | 2.3 | 4.2 | 6.3 | 7.7 | 15.6 | 60 | 27 | 863.5 | 0 | 0 | 12.25 | 0.049 | |
| A26AB | 2026-05-03 23:00:00 | 281 | 1.1 | 3.7 | 6.1 | 9.7 | 15.6 | 60 | 27 | 863.6 | 0 | 0 | 12.25 | 0.072 | |
| A26AB | 2026-05-03 22:45:00 | 278 | 1.1 | 2.8 | 5.8 | 10.9 | 16.3 | 61 | 28 | 863.3 | 0 | 0 | 12.26 | 0.039 | |
| A26AB | 2026-05-03 22:30:00 | 207 | 3.7 | 5.9 | 8.9 | 7.4 | 17.2 | 63 | 31 | 863 | 0 | 0 | 12.26 | 0.054 | |
| A26AB | 2026-05-03 22:15:00 | 201 | 3.9 | 6.1 | 9 | 6.2 | 17.4 | 63 | 30 | 863 | 0 | 0 | 12.27 | 0.067 | |
| A26AB | 2026-05-03 22:00:00 | 199 | 3.7 | 5.9 | 8.5 | 6.2 | 17.4 | 63 | 31 | 862.9 | 0 | 0 | 12.27 | 0.076 | |
| A26AB | 2026-05-03 21:45:00 | 201 | 3.9 | 5.9 | 8.2 | 6.1 | 17.9 | 64 | 29 | 862.9 | 0 | 0 | 12.27 | 0.063 | |
| A26AB | 2026-05-03 21:30:00 | 201 | 3.8 | 6.6 | 9.6 | 6.6 | 18.2 | 64 | 29 | 863 | 0 | 0 | 12.28 | 0.051 | |
| A26AB | 2026-05-03 21:15:00 | 207 | 4.8 | 7.1 | 9.7 | 5.5 | 18.5 | 65 | 28 | 863.1 | 0 | 0 | 12.28 | 0.052 | |
| A26AB | 2026-05-03 21:00:00 | 206 | 4.7 | 6.8 | 9 | 6.2 | 19 | 66 | 26 | 863.1 | 0 | 0 | 12.29 | 0.057 | |
| A26AB | 2026-05-03 20:45:00 | 204 | 4 | 6.1 | 9.1 | 6.5 | 19.3 | 66 | 24 | 863.1 | 0 | 0 | 12.29 | 0.073 | |
| A26AB | 2026-05-03 20:30:00 | 204 | 3.6 | 5.7 | 8.6 | 6.3 | 19.7 | 67 | 22 | 863 | 0 | 0 | 12.29 | 0.076 | |
| A26AB | 2026-05-03 20:15:00 | 211 | 4.1 | 5.9 | 8.1 | 6.2 | 19.8 | 67 | 21 | 862.8 | 0 | 0 | 12.3 | 0.079 | |
| A26AB | 2026-05-03 20:00:00 | 210 | 3.1 | 5.8 | 8.1 | 5.8 | 20 | 68 | 20 | 862.6 | 0 | 0 | 12.3 | 0.079 | |
| A26AB | 2026-05-03 19:45:00 | 212 | 3.6 | 6.2 | 8.8 | 7.1 | 20.3 | 68 | 20 | 862.4 | 0 | 0 | 12.31 | 0.073 | |
| A26AB | 2026-05-03 19:30:00 | 207 | 3.8 | 5.6 | 8.4 | 6 | 20.2 | 68 | 20 | 862.1 | 0 | 0 | 12.31 | 0.089 | |
| A26AB | 2026-05-03 19:15:00 | 214 | 4 | 6 | 9 | 6.1 | 20.7 | 69 | 20 | 861.9 | 0 | 0 | 12.31 | 0.063 | |
| A26AB | 2026-05-03 19:00:00 | 212 | 4.5 | 7 | 9.7 | 6.9 | 21.1 | 70 | 20 | 861.7 | 0 | 0 | 12.32 | 0.06 | |
| A26AB | 2026-05-03 18:45:00 | 215 | 4.4 | 7.1 | 9.9 | 6.8 | 21.6 | 70 | 19 | 861.7 | 0.3 | 0 | 12.32 | 0.045 | |
| A26AB | 2026-05-03 18:30:00 | 212 | 3.3 | 5.6 | 8.8 | 8.2 | 21.8 | 71 | 18 | 861.6 | 7.3 | 0 | 12.35 | 0.05 | |
| A26AB | 2026-05-03 18:15:00 | 215 | 3.3 | 5.5 | 7.7 | 8.4 | 22.2 | 72 | 17 | 861.7 | 23.6 | 0 | 12.37 | 0.038 | |
| A26AB | 2026-05-03 18:00:00 | 213 | 3 | 5.9 | 11.1 | 10.6 | 22.7 | 72 | 16 | 861.6 | 66.3 | 0 | 12.41 | 0.014 | |
| A26AB | 2026-05-03 17:45:00 | 190 | 2.7 | 5.4 | 11.1 | 11.2 | 23 | 73 | 15 | 861.7 | 117.9 | 0 | 12.45 | -0.007 | |
| A26AB | 2026-05-03 17:30:00 | 196 | 2.2 | 5.5 | 8.8 | 15.8 | 23 | 73 | 15 | 861.8 | 87.9 | 0 | 12.47 | -0.008 | |
| A26AB | 2026-05-03 17:15:00 | 190 | 0.4 | 5.8 | 10.7 | 18.2 | 22.7 | 73 | 16 | 862 | 75.5 | 0 | 12.52 | -0.014 | |
| A26AB | 2026-05-03 17:00:00 | 100 | 0.7 | 2.7 | 6.5 | 18.7 | 23.2 | 73 | 17 | 862 | 134 | 0 | 12.63 | -0.079 | |